Nippon Maru — 3FDA7 — position and weather

sailwx.info

Track history (hours):
 
Tides and Currents Weather Stations Pressure Air Temp Water Temp Dewpoint Dewpoint Depression Visibility Wind Speed Wind Dir Waves Ship Positions

Nippon Maru

Last reported at 2015-May-17 12:17 UTC. Time now 2015-May-27 03:47 UTC.
Position N 34°18' E 127°53'.
Warning: this ship's position is 9 days out of date.

Length 190 m; draft 6.1 m.

Type: Cargo ship. MMSI: 353814000.

Date/timePositionNaut miles runAvg speedWind from/ knotsBaromVisibWave heightAir tempDewpointWater temp
2015-May-17 12:17N 34°18' E 127°53'3512.4
2015-May-17 09:29N 34°06' E 127°14'19711.4
2015-May-16 16:13N 36°14' E 124°11'1013.6
2015-May-16 15:30N 36°23' E 124°07'1313.8
2015-May-16 14:33N 36°36' E 124°03'1413.5
2015-May-16 13:33N 36°47' E 123°54'1614.4
2015-May-16 12:29N 37°00' E 123°44'5613.4
2015-May-16 08:15N 37°47' E 123°04'913.0
2015-May-16 07:33N 37°50' E 122°53'1313.4
2015-May-16 06:33N 37°55' E 122°37'1413.9
2015-May-16 05:33N 38°02' E 122°21'1414.4
2015-May-16 04:33N 38°07' E 122°05'1514.3
2015-May-16 03:33N 38°13' E 121°48'1413.8
2015-May-16 02:33N 38°18' E 121°32'1913.3
2015-May-16 01:05N 38°27' E 121°10'1013.4
2015-May-16 00:22N 38°32' E 120°59'1313.2
2015-May-15 23:24N 38°42' E 120°49'  
2015-May-11 22:26N 38°29' E 121°15'1011.1
2015-May-11 21:33N 38°25' E 121°27'1111.1
2015-May-11 20:33N 38°21' E 121°40'35610.4
2015-May-10 10:23N 32°44' E 124°00'1813.3
2015-May-10 09:03N 32°26' E 123°60'8312.0
2015-May-10 02:11N 31°03' E 124°00'710.9
2015-May-10 01:31N 30°56' E 124°00'  
Track history (hours):
 
Tides and Currents Weather Stations Pressure Air Temp Water Temp Dewpoint Dewpoint Depression Visibility Wind Speed Wind Dir Waves Ship Positions

Nippon Maru

Last reported at 2015-May-17 12:17 UTC. Time now 2015-May-27 03:47 UTC.
Position N 34°18' E 127°53'.
Warning: this ship's position is 9 days out of date.

Length 190 m; draft 6.1 m.

Type: Cargo ship. MMSI: 353814000.

Date/timePositionNaut miles runAvg speedWind from/ knotsBaromVisibWave heightAir tempDewpointWater temp
2015-May-17 12:17N 34°18' E 127°53'3512.4
2015-May-17 09:29N 34°06' E 127°14'19711.4
2015-May-16 16:13N 36°14' E 124°11'1013.6
2015-May-16 15:30N 36°23' E 124°07'1313.8
2015-May-16 14:33N 36°36' E 124°03'1413.5
2015-May-16 13:33N 36°47' E 123°54'1614.4
2015-May-16 12:29N 37°00' E 123°44'5613.4
2015-May-16 08:15N 37°47' E 123°04'913.0
2015-May-16 07:33N 37°50' E 122°53'1313.4
2015-May-16 06:33N 37°55' E 122°37'1413.9
2015-May-16 05:33N 38°02' E 122°21'1414.4
2015-May-16 04:33N 38°07' E 122°05'1514.3
2015-May-16 03:33N 38°13' E 121°48'1413.8
2015-May-16 02:33N 38°18' E 121°32'1913.3
2015-May-16 01:05N 38°27' E 121°10'1013.4
2015-May-16 00:22N 38°32' E 120°59'1313.2
2015-May-15 23:24N 38°42' E 120°49'  
2015-May-11 22:26N 38°29' E 121°15'1011.1
2015-May-11 21:33N 38°25' E 121°27'1111.1
2015-May-11 20:33N 38°21' E 121°40'35610.4
2015-May-10 10:23N 32°44' E 124°00'1813.3
2015-May-10 09:03N 32°26' E 123°60'8312.0
2015-May-10 02:11N 31°03' E 124°00'710.9
2015-May-10 01:31N 30°56' E 124°00'  

Dump ship's entire track history